createdAt,value
2017-08-17T00:00:47.606Z,96894.14
2017-08-17T00:03:13.447Z,96893.38
2017-08-17T00:05:39.210Z,96893.59
2017-08-17T00:08:04.974Z,96892.19
2017-08-17T00:10:30.731Z,96897.55
2017-08-17T00:12:56.508Z,96896.19
2017-08-17T00:15:22.263Z,96903.02
2017-08-17T00:17:48.044Z,96902.69
2017-08-17T00:20:13.874Z,96902.75
2017-08-17T00:22:39.667Z,96906.50
2017-08-17T00:25:05.408Z,96900.75
2017-08-17T00:27:31.176Z,96898.89
2017-08-17T00:29:56.971Z,96894.67
2017-08-17T00:32:22.714Z,96904.29
2017-08-17T00:34:48.594Z,96896.58
2017-08-17T00:37:14.406Z,96895.87
2017-08-17T00:39:40.194Z,96899.94
2017-08-17T00:42:05.988Z,96895.30
2017-08-17T00:44:31.747Z,96894.95
2017-08-17T00:46:57.547Z,96899.95
2017-08-17T00:49:23.361Z,96896.58
2017-08-17T00:51:49.113Z,96899.02
2017-08-17T00:54:14.916Z,96897.59
2017-08-17T00:56:40.686Z,96891.79
2017-08-17T00:59:06.478Z,96893.58
2017-08-17T01:01:32.250Z,96891.01
2017-08-17T01:03:58.058Z,96885.84
2017-08-17T01:06:23.855Z,96885.55
2017-08-17T01:08:50.031Z,96886.21
2017-08-17T01:11:15.799Z,96884.23
2017-08-17T01:13:41.618Z,96882.33
2017-08-17T01:16:07.370Z,96879.07
2017-08-17T01:18:33.183Z,96878.55
2017-08-17T01:20:58.971Z,96884.45
2017-08-17T01:23:24.742Z,96885.48
2017-08-17T01:25:50.527Z,96876.16
2017-08-17T01:28:16.311Z,96869.72
2017-08-17T01:30:42.146Z,96866.13
2017-08-17T01:33:07.951Z,96858.63
2017-08-17T01:35:33.724Z,96864.36
2017-08-17T01:37:59.486Z,96860.75
2017-08-17T01:40:25.281Z,96860.56
2017-08-17T01:42:51.050Z,96856.88
2017-08-17T01:45:16.829Z,96855.24
2017-08-17T01:47:42.629Z,96852.86
2017-08-17T01:50:08.398Z,96849.50
2017-08-17T01:52:34.160Z,96848.39
2017-08-17T01:54:59.986Z,96845.09
2017-08-17T01:57:25.751Z,96850.05
2017-08-17T01:59:51.551Z,96854.44
2017-08-17T02:02:17.351Z,96849.84
2017-08-17T02:04:43.109Z,96854.17
2017-08-17T02:07:08.890Z,96851.27
2017-08-17T02:09:34.743Z,96851.34
2017-08-17T02:12:00.502Z,96851.69
2017-08-17T02:14:26.290Z,96849.91
2017-08-17T02:16:52.065Z,96854.32
2017-08-17T02:19:17.811Z,96855.14
2017-08-17T02:21:43.606Z,96850.77
2017-08-17T02:24:09.386Z,96847.09
2017-08-17T02:26:35.174Z,96855.52
2017-08-17T02:29:00.971Z,96848.09
2017-08-17T02:31:26.746Z,96847.55
2017-08-17T02:33:52.499Z,96849.22
2017-08-17T02:36:18.286Z,96852.89
2017-08-17T02:38:44.028Z,96855.94
2017-08-17T02:41:09.845Z,96852.00
2017-08-17T02:43:35.623Z,96853.42
2017-08-17T02:46:01.402Z,96860.45
2017-08-17T02:48:27.186Z,96855.13
2017-08-17T02:50:52.942Z,96856.36
2017-08-17T02:53:18.769Z,96859.61
2017-08-17T02:55:44.579Z,96855.20
2017-08-17T02:58:10.342Z,96858.68
2017-08-17T03:00:36.163Z,96852.95
2017-08-17T03:03:01.927Z,96844.45
2017-08-17T03:05:27.707Z,96856.85
2017-08-17T03:07:53.485Z,96849.62
2017-08-17T03:10:19.239Z,96844.64
2017-08-17T03:12:45.023Z,96839.84
2017-08-17T03:15:10.802Z,96840.97
2017-08-17T03:17:36.580Z,96840.00
2017-08-17T03:20:02.370Z,96846.67
2017-08-17T03:22:28.122Z,96846.63
2017-08-17T03:24:53.943Z,96850.03
2017-08-17T03:27:19.741Z,96850.17
2017-08-17T03:29:45.507Z,96841.58
2017-08-17T03:32:11.327Z,96839.70
2017-08-17T03:34:37.115Z,96842.83
2017-08-17T03:37:02.914Z,96846.67
2017-08-17T03:39:28.699Z,96837.91
2017-08-17T03:41:54.468Z,96842.17
2017-08-17T03:44:20.218Z,96843.94
2017-08-17T03:46:46.008Z,96841.77
2017-08-17T03:49:11.775Z,96848.06
2017-08-17T03:51:37.520Z,96846.33
2017-08-17T03:54:03.339Z,96847.78
2017-08-17T03:56:29.098Z,96844.00
2017-08-17T03:58:54.941Z,96854.84
2017-08-17T04:01:20.702Z,96854.29
2017-08-17T04:03:46.462Z,96857.86
2017-08-17T04:06:12.536Z,96860.28
2017-08-17T04:08:39.206Z,96867.80
2017-08-17T04:11:05.047Z,96864.57
2017-08-17T04:13:30.829Z,96866.86
2017-08-17T04:15:56.631Z,96869.70
2017-08-17T04:18:22.386Z,96860.84
2017-08-17T04:20:48.138Z,96855.07
2017-08-17T04:23:13.930Z,96857.75
2017-08-17T04:25:39.683Z,96861.97
2017-08-17T04:28:05.523Z,96862.95
2017-08-17T04:30:31.339Z,96867.31
2017-08-17T04:32:57.103Z,96878.53
2017-08-17T04:35:22.855Z,96884.80
2017-08-17T04:37:48.675Z,96887.47
2017-08-17T04:40:14.420Z,96886.53
2017-08-17T04:42:40.188Z,96881.59
2017-08-17T04:45:06.016Z,96878.33
2017-08-17T04:47:31.772Z,96881.01
2017-08-17T04:49:57.561Z,96875.65
2017-08-17T04:52:23.351Z,96873.67
2017-08-17T04:54:49.136Z,96873.20
2017-08-17T04:57:31.298Z,96879.73
2017-08-17T04:59:57.118Z,96884.53
2017-08-17T05:02:22.899Z,96883.06
2017-08-17T05:04:48.666Z,96889.00
2017-08-17T05:07:14.462Z,96887.19
2017-08-17T05:09:40.214Z,96888.44
2017-08-17T05:12:06.030Z,96888.31
2017-08-17T05:14:31.912Z,96891.84
2017-08-17T05:16:57.763Z,96892.96
2017-08-17T05:19:23.519Z,96888.34
2017-08-17T05:21:49.394Z,96884.48
2017-08-17T05:24:15.481Z,96884.95
2017-08-17T05:26:41.322Z,96879.85
2017-08-17T05:29:07.115Z,96880.67
2017-08-17T05:31:32.876Z,96881.99
2017-08-17T05:33:58.678Z,96884.77
2017-08-17T05:36:24.430Z,96894.11
2017-08-17T05:38:50.197Z,96890.38
2017-08-17T05:41:16.031Z,96897.28
2017-08-17T05:43:41.875Z,96894.06
2017-08-17T05:46:07.794Z,96901.24
2017-08-17T05:48:33.578Z,96895.19
2017-08-17T05:50:59.322Z,96897.75
2017-08-17T05:53:25.127Z,96904.00
2017-08-17T05:55:50.903Z,96904.45
2017-08-17T05:58:16.653Z,96906.82
2017-08-17T06:00:42.423Z,96903.91
2017-08-17T06:03:08.302Z,96904.96
2017-08-17T06:05:34.053Z,96912.73
2017-08-17T06:07:59.830Z,96914.06
2017-08-17T06:10:25.608Z,96915.47
2017-08-17T06:12:51.469Z,96907.02
2017-08-17T06:15:17.215Z,96915.53
2017-08-17T06:17:42.991Z,96911.16
2017-08-17T06:20:08.780Z,96910.21
2017-08-17T06:22:34.651Z,96910.02
2017-08-17T06:25:00.421Z,96909.68
2017-08-17T06:27:26.194Z,96909.16
2017-08-17T06:29:52.067Z,96903.53
2017-08-17T06:32:17.854Z,96901.96
2017-08-17T06:34:43.735Z,96903.70
2017-08-17T06:37:09.495Z,96897.40
2017-08-17T06:39:35.326Z,96894.97
2017-08-17T06:42:01.178Z,96891.51
2017-08-17T06:44:26.968Z,96893.60
2017-08-17T06:46:52.791Z,96893.00
2017-08-17T06:49:18.642Z,96889.98
2017-08-17T06:51:44.463Z,96875.25
2017-08-17T06:54:10.267Z,96873.44
2017-08-17T06:56:36.026Z,96879.97
2017-08-17T06:59:01.839Z,96882.12
2017-08-17T07:01:27.575Z,96886.38
2017-08-17T07:03:53.323Z,96893.48
2017-08-17T07:06:19.106Z,96883.30
2017-08-17T07:08:45.522Z,96890.42
2017-08-17T07:11:11.321Z,96887.92
2017-08-17T07:13:37.110Z,96889.03
2017-08-17T07:16:02.856Z,96890.72
2017-08-17T07:18:28.622Z,96894.16
2017-08-17T07:20:54.385Z,96889.25
2017-08-17T07:23:20.178Z,96893.22
2017-08-17T07:25:45.934Z,96891.89
2017-08-17T07:28:11.715Z,96886.63
2017-08-17T07:30:37.562Z,96890.38
2017-08-17T07:33:03.419Z,96893.75
2017-08-17T07:35:29.212Z,96892.32
2017-08-17T07:37:54.963Z,96890.44
2017-08-17T07:40:20.704Z,96888.76
2017-08-17T07:42:46.590Z,96888.33
2017-08-17T07:45:12.360Z,96879.82
2017-08-17T07:47:38.114Z,96874.33
2017-08-17T07:50:03.943Z,96874.55
2017-08-17T07:52:29.731Z,96876.37
2017-08-17T07:54:55.541Z,96878.79
2017-08-17T07:57:21.334Z,96884.94
2017-08-17T07:59:47.083Z,96880.64
2017-08-17T08:02:12.904Z,96876.06
2017-08-17T08:04:38.640Z,96882.61
2017-08-17T08:07:04.390Z,96888.45
2017-08-17T08:09:30.177Z,96884.00
2017-08-17T08:11:55.932Z,96880.61
2017-08-17T08:14:21.699Z,96878.85
2017-08-17T08:16:47.552Z,96880.19
2017-08-17T08:19:13.331Z,96885.75
2017-08-17T08:21:39.084Z,96887.09
2017-08-17T08:24:04.891Z,96889.17
2017-08-17T08:26:30.644Z,96896.07
2017-08-17T08:28:56.392Z,96905.52
2017-08-17T08:31:22.163Z,96905.01
2017-08-17T08:33:47.947Z,96902.91
2017-08-17T08:36:13.764Z,96905.22
2017-08-17T08:38:39.514Z,96896.75
2017-08-17T08:41:05.275Z,96891.70
2017-08-17T08:43:31.099Z,96895.59
2017-08-17T08:45:56.847Z,96889.72
2017-08-17T08:48:22.663Z,96885.00
2017-08-17T08:50:48.420Z,96885.98
2017-08-17T08:53:14.255Z,96885.25
2017-08-17T08:55:40.061Z,96883.36
2017-08-17T08:58:05.818Z,96889.92
2017-08-17T09:00:31.566Z,96889.13
2017-08-17T09:02:57.387Z,96888.58
2017-08-17T09:05:23.130Z,96884.16
2017-08-17T09:07:48.894Z,96883.63
2017-08-17T09:10:14.662Z,96878.52
2017-08-17T09:12:40.419Z,96878.00
2017-08-17T09:15:06.209Z,96876.64
2017-08-17T09:17:31.990Z,96877.02
2017-08-17T09:19:57.771Z,96871.13
2017-08-17T09:22:23.526Z,96877.03
2017-08-17T09:24:49.316Z,96878.48
2017-08-17T09:27:15.070Z,96878.45
2017-08-17T09:29:40.911Z,96881.96
2017-08-17T09:32:06.691Z,96874.13
2017-08-17T09:34:32.452Z,96878.17
2017-08-17T09:36:58.227Z,96871.56
2017-08-17T09:39:24.008Z,96873.28
2017-08-17T09:41:49.812Z,96878.15
2017-08-17T09:44:15.670Z,96872.47
2017-08-17T09:46:41.481Z,96866.41
2017-08-17T09:49:07.318Z,96862.50
2017-08-17T09:51:33.065Z,96860.02
2017-08-17T09:53:58.875Z,96863.45
2017-08-17T09:56:24.651Z,96855.55
2017-08-17T09:58:50.414Z,96858.97
2017-08-17T10:01:16.232Z,96858.41
2017-08-17T10:03:41.982Z,96857.48
2017-08-17T10:06:07.807Z,96853.84
2017-08-17T10:08:33.626Z,96859.81
2017-08-17T10:10:59.458Z,96864.46
2017-08-17T10:13:25.271Z,96854.98
2017-08-17T10:15:51.065Z,96849.27
2017-08-17T10:18:16.842Z,96847.53
2017-08-17T10:20:42.600Z,96842.03
2017-08-17T10:23:08.504Z,96843.57
2017-08-17T10:25:34.302Z,96847.88
2017-08-17T10:28:00.099Z,96854.91
2017-08-17T10:30:25.871Z,96853.69
2017-08-17T10:32:51.694Z,96851.47
2017-08-17T10:35:17.459Z,96849.00
2017-08-17T10:37:43.239Z,96852.15
2017-08-17T10:40:08.983Z,96847.19
2017-08-17T10:42:34.878Z,96851.72
2017-08-17T10:45:00.675Z,96852.91
2017-08-17T10:47:26.470Z,96850.63
2017-08-17T10:49:52.276Z,96839.44
2017-08-17T10:52:18.042Z,96839.13
2017-08-17T10:54:43.835Z,96844.58
2017-08-17T10:57:09.618Z,96843.38
2017-08-17T10:59:35.453Z,96843.16
2017-08-17T11:02:01.215Z,96846.61
2017-08-17T11:04:27.019Z,96841.39
2017-08-17T11:06:52.790Z,96841.79
2017-08-17T11:09:18.543Z,96840.50
2017-08-17T11:11:44.339Z,96843.55
2017-08-17T11:14:10.103Z,96841.78
2017-08-17T11:16:35.876Z,96840.88
2017-08-17T11:19:01.757Z,96838.86
2017-08-17T11:21:27.538Z,96835.88
2017-08-17T11:23:53.370Z,96832.28
2017-08-17T11:26:19.227Z,96837.99
2017-08-17T11:28:45.042Z,96834.53
2017-08-17T11:31:10.878Z,96832.66
2017-08-17T11:33:36.678Z,96823.76
2017-08-17T11:36:02.498Z,96831.80
2017-08-17T11:38:28.289Z,96836.47
2017-08-17T11:40:54.059Z,96836.75
2017-08-17T11:43:19.859Z,96831.63
2017-08-17T11:45:45.715Z,96832.16
2017-08-17T11:48:11.534Z,96826.33
2017-08-17T11:50:37.319Z,96820.33
2017-08-17T11:53:03.063Z,96822.81
2017-08-17T11:55:28.824Z,96818.89
2017-08-17T11:57:54.654Z,96814.92
2017-08-17T12:00:20.414Z,96814.34
2017-08-17T12:02:46.203Z,96811.14
2017-08-17T12:05:11.968Z,96815.23
2017-08-17T12:07:37.730Z,96803.81
2017-08-17T12:10:03.503Z,96801.92
2017-08-17T12:12:29.263Z,96797.80
2017-08-17T12:14:55.099Z,96809.34
2017-08-17T12:17:20.839Z,96799.96
2017-08-17T12:19:46.821Z,96802.96
2017-08-17T12:22:12.691Z,96785.78
2017-08-17T12:24:38.453Z,96793.77
2017-08-17T12:27:04.310Z,96788.86
2017-08-17T12:29:30.142Z,96785.53
2017-08-17T12:31:55.961Z,96789.16
2017-08-17T12:34:21.749Z,96786.35
2017-08-17T12:36:47.681Z,96800.09
2017-08-17T12:39:13.526Z,96792.14
2017-08-17T12:41:39.273Z,96791.14
2017-08-17T12:44:05.050Z,96786.23
2017-08-17T12:46:30.818Z,96793.50
2017-08-17T12:48:56.631Z,96792.48
2017-08-17T12:51:22.415Z,96792.71
2017-08-17T12:53:48.279Z,96785.22
2017-08-17T12:56:14.098Z,96793.39
2017-08-17T12:58:39.893Z,96788.43
2017-08-17T13:01:05.639Z,96783.36
2017-08-17T13:03:31.419Z,96776.52
2017-08-17T13:05:57.187Z,96779.20
2017-08-17T13:08:22.953Z,96779.33
2017-08-17T13:10:48.755Z,96774.75
2017-08-17T13:13:14.510Z,96765.44
2017-08-17T13:15:40.319Z,96759.80
2017-08-17T13:18:06.101Z,96763.56
2017-08-17T13:20:31.878Z,96765.45
2017-08-17T13:22:57.635Z,96756.55
2017-08-17T13:25:23.399Z,96770.19
2017-08-17T13:27:49.171Z,96769.26
2017-08-17T13:30:14.966Z,96770.58
2017-08-17T13:32:40.738Z,96764.63
2017-08-17T13:35:06.583Z,96761.68
2017-08-17T13:37:32.356Z,96758.79
2017-08-17T13:39:58.118Z,96767.52
2017-08-17T13:42:23.882Z,96757.62
2017-08-17T13:44:49.636Z,96765.10
2017-08-17T13:47:15.546Z,96758.42
2017-08-17T13:49:41.320Z,96761.15
2017-08-17T13:52:07.082Z,96762.02
2017-08-17T13:54:32.894Z,96764.48
2017-08-17T13:56:58.646Z,96760.98
2017-08-17T13:59:24.430Z,96769.92
2017-08-17T14:01:50.303Z,96772.89
2017-08-17T14:04:16.048Z,96773.59
2017-08-17T14:06:41.834Z,96764.55
2017-08-17T14:09:07.610Z,96764.61
2017-08-17T14:11:33.370Z,96760.70
2017-08-17T14:13:59.175Z,96754.34
2017-08-17T14:16:25.027Z,96759.70
2017-08-17T14:18:50.945Z,96757.62
2017-08-17T14:21:16.750Z,96763.56
2017-08-17T14:23:42.507Z,96764.72
2017-08-17T14:26:08.298Z,96762.54
2017-08-17T14:28:34.099Z,96765.67
2017-08-17T14:30:59.870Z,96768.03
2017-08-17T14:33:25.621Z,96768.59
2017-08-17T14:35:51.394Z,96773.96
2017-08-17T14:38:17.167Z,96760.88
2017-08-17T14:40:42.975Z,96763.41
2017-08-17T14:43:08.737Z,96763.97
2017-08-17T14:45:34.542Z,96763.46
2017-08-17T14:48:00.314Z,96766.52
2017-08-17T14:50:26.067Z,96763.88
2017-08-17T14:52:51.897Z,96754.55
2017-08-17T14:55:17.642Z,96762.39
2017-08-17T14:57:43.411Z,96755.83
2017-08-17T15:00:09.180Z,96757.85
2017-08-17T15:02:34.966Z,96752.53
2017-08-17T15:05:00.825Z,96747.53
2017-08-17T15:07:26.602Z,96753.66
2017-08-17T15:09:52.371Z,96759.50
2017-08-17T15:12:18.130Z,96757.78
2017-08-17T15:14:43.895Z,96754.52
2017-08-17T15:17:09.678Z,96761.83
2017-08-17T15:19:35.450Z,96761.39
2017-08-17T15:22:01.314Z,96754.88
2017-08-17T15:24:27.127Z,96754.38
2017-08-17T15:26:52.875Z,96755.13
2017-08-17T15:29:18.633Z,96752.59
2017-08-17T15:31:44.418Z,96757.75
2017-08-17T15:34:10.188Z,96758.91
2017-08-17T15:36:36.039Z,96752.54
2017-08-17T15:39:01.895Z,96745.52
2017-08-17T15:41:27.694Z,96750.59
2017-08-17T15:43:53.451Z,96751.89
2017-08-17T15:46:19.199Z,96759.27
2017-08-17T15:48:45.063Z,96756.17
2017-08-17T15:51:10.842Z,96760.09
2017-08-17T15:53:36.631Z,96760.62
2017-08-17T15:56:02.390Z,96763.85
2017-08-17T15:58:28.156Z,96762.56
2017-08-17T16:00:53.954Z,96759.83
2017-08-17T16:03:19.779Z,96772.88
2017-08-17T16:05:45.586Z,96778.20
2017-08-17T16:08:11.460Z,96762.86
2017-08-17T16:10:37.202Z,96765.88
2017-08-17T16:13:02.975Z,96768.86
2017-08-17T16:15:28.756Z,96784.28
2017-08-17T16:17:54.502Z,96775.08
2017-08-17T16:20:20.274Z,96779.63
2017-08-17T16:22:46.071Z,96778.50
2017-08-17T16:25:11.939Z,96773.14
2017-08-17T16:27:37.718Z,96778.31
2017-08-17T16:30:03.554Z,96759.44
2017-08-17T16:32:29.336Z,96759.55
2017-08-17T16:34:55.123Z,96770.78
2017-08-17T16:37:20.874Z,96773.34
2017-08-17T16:39:46.638Z,96773.77
2017-08-17T16:42:12.427Z,96777.80
2017-08-17T16:44:38.178Z,96776.08
2017-08-17T16:47:03.930Z,96775.59
2017-08-17T16:49:29.750Z,96780.38
2017-08-17T16:51:55.510Z,96775.28
2017-08-17T16:54:21.302Z,96776.58
2017-08-17T16:56:47.051Z,96768.78
2017-08-17T16:59:12.786Z,96769.11
2017-08-17T17:01:38.602Z,96753.94
2017-08-17T17:04:04.410Z,96756.78
2017-08-17T17:06:30.190Z,96760.10
2017-08-17T17:08:55.987Z,96766.41
2017-08-17T17:11:21.738Z,96764.92
2017-08-17T17:13:47.502Z,96757.67
2017-08-17T17:16:13.275Z,96755.55
2017-08-17T17:18:39.023Z,96757.04
2017-08-17T17:21:04.827Z,96760.56
2017-08-17T17:23:30.589Z,96757.73
2017-08-17T17:25:56.346Z,96756.53
2017-08-17T17:28:22.149Z,96754.11
2017-08-17T17:30:47.904Z,96750.45
2017-08-17T17:33:13.715Z,96749.95
2017-08-17T17:35:39.507Z,96745.15
2017-08-17T17:38:05.334Z,96749.75
2017-08-17T17:40:31.082Z,96749.67
2017-08-17T17:42:56.850Z,96753.20
2017-08-17T17:45:22.646Z,96753.16
2017-08-17T17:47:48.526Z,96745.95
2017-08-17T17:50:14.304Z,96757.22
2017-08-17T17:52:40.070Z,96756.38
2017-08-17T17:55:05.824Z,96763.36
2017-08-17T17:57:31.639Z,96764.88
2017-08-17T17:59:57.410Z,96758.20
2017-08-17T18:02:23.193Z,96762.70
2017-08-17T18:04:48.990Z,96761.25
2017-08-17T18:07:14.807Z,96766.68
2017-08-17T18:09:40.571Z,96764.46
2017-08-17T18:12:06.411Z,96770.25
2017-08-17T18:14:32.165Z,96778.07
2017-08-17T18:16:57.949Z,96769.51
2017-08-17T18:19:23.766Z,96774.03
2017-08-17T18:21:49.511Z,96770.88
2017-08-17T18:24:15.299Z,96762.99
2017-08-17T18:26:41.059Z,96765.50
2017-08-17T18:29:06.860Z,96759.23
2017-08-17T18:31:32.617Z,96762.64
2017-08-17T18:33:58.371Z,96764.55
2017-08-17T18:36:24.315Z,96756.96
2017-08-17T18:38:50.067Z,96766.11
2017-08-17T18:41:15.899Z,96769.14
2017-08-17T18:43:41.651Z,96776.98
2017-08-17T18:46:07.427Z,96769.02
2017-08-17T18:48:33.221Z,96764.17
2017-08-17T18:50:58.979Z,96767.27
2017-08-17T18:53:24.768Z,96775.75
2017-08-17T18:55:50.560Z,96778.05
2017-08-17T18:58:16.303Z,96778.70
2017-08-17T19:00:42.107Z,96770.26
2017-08-17T19:03:07.963Z,96777.15
2017-08-17T19:05:33.764Z,96776.22
2017-08-17T19:07:59.506Z,96782.69
2017-08-17T19:10:25.267Z,96780.12
2017-08-17T19:12:51.058Z,96777.37
2017-08-17T19:15:16.879Z,96769.24
2017-08-17T19:17:42.710Z,96772.48
2017-08-17T19:20:08.483Z,96768.33
2017-08-17T19:22:34.315Z,96775.97
2017-08-17T19:25:00.111Z,96763.83
2017-08-17T19:27:25.863Z,96771.56
2017-08-17T19:29:51.658Z,96762.27
2017-08-17T19:32:17.414Z,96761.09
2017-08-17T19:34:44.203Z,96763.94
2017-08-17T19:37:09.979Z,96767.99
2017-08-17T19:39:35.743Z,96762.40
2017-08-17T19:42:01.526Z,96761.89
2017-08-17T19:44:27.313Z,96758.12
2017-08-17T19:46:53.084Z,96757.79
2017-08-17T19:49:18.889Z,96760.11
2017-08-17T19:51:44.666Z,96764.56
2017-08-17T19:54:10.450Z,96770.05
2017-08-17T19:56:36.209Z,96775.91
2017-08-17T19:59:01.986Z,96774.82
2017-08-17T20:01:27.766Z,96773.80
2017-08-17T20:03:53.541Z,96778.48
2017-08-17T20:06:19.351Z,96780.38
2017-08-17T20:08:45.774Z,96771.84
2017-08-17T20:11:11.559Z,96765.28
2017-08-17T20:13:37.335Z,96768.41
2017-08-17T20:16:03.143Z,96770.20
2017-08-17T20:18:28.893Z,96772.98
2017-08-17T20:20:54.653Z,96781.39
2017-08-17T20:23:20.531Z,96777.08
2017-08-17T20:25:46.303Z,96779.02
2017-08-17T20:28:12.058Z,96784.50
2017-08-17T20:30:37.826Z,96785.09
2017-08-17T20:33:03.590Z,96788.98
2017-08-17T20:35:29.366Z,96776.27
2017-08-17T20:37:55.132Z,96777.26
2017-08-17T20:40:20.935Z,96773.77
2017-08-17T20:42:46.684Z,96777.45
2017-08-17T20:45:12.427Z,96782.56
2017-08-17T20:47:38.200Z,96780.02
2017-08-17T20:50:04.004Z,96784.35
2017-08-17T20:52:29.745Z,96783.39
2017-08-17T20:54:55.528Z,96784.57
2017-08-17T20:57:21.379Z,96780.80
2017-08-17T20:59:47.127Z,96782.47
2017-08-17T21:02:12.874Z,96780.44
2017-08-17T21:04:38.650Z,96785.11
2017-08-17T21:07:04.464Z,96786.03
2017-08-17T21:09:30.259Z,96787.41
2017-08-17T21:11:56.050Z,96796.39
2017-08-17T21:14:21.790Z,96783.98
2017-08-17T21:16:47.614Z,96784.94
2017-08-17T21:19:13.403Z,96783.28
2017-08-17T21:21:39.166Z,96788.62
2017-08-17T21:24:04.966Z,96792.98
2017-08-17T21:26:30.770Z,96795.26
2017-08-17T21:28:56.563Z,96794.72
2017-08-17T21:31:22.330Z,96795.28
2017-08-17T21:33:48.134Z,96790.17
2017-08-17T21:36:13.905Z,96794.25
2017-08-17T21:38:39.667Z,96797.00
2017-08-17T21:41:05.463Z,96799.64
2017-08-17T21:43:31.215Z,96803.44
2017-08-17T21:45:57.030Z,96805.75
2017-08-17T21:48:22.895Z,96805.11
2017-08-17T21:50:48.682Z,96803.23
2017-08-17T21:53:14.490Z,96808.72
2017-08-17T21:55:40.230Z,96803.05
2017-08-17T21:58:06.909Z,96801.80
2017-08-17T22:00:32.725Z,96803.34
2017-08-17T22:02:58.491Z,96804.33
2017-08-17T22:05:24.294Z,96809.31
2017-08-17T22:07:50.094Z,96806.56
2017-08-17T22:10:15.850Z,96817.27
2017-08-17T22:13:27.120Z,96813.30
2017-08-17T22:15:53.028Z,96812.80
2017-08-17T22:18:18.909Z,96815.07
2017-08-17T22:20:44.770Z,96816.00
2017-08-17T22:23:10.845Z,96812.64
2017-08-17T22:25:36.732Z,96810.42
2017-08-17T22:28:03.112Z,96809.86
2017-08-17T22:30:29.039Z,96810.09
2017-08-17T22:32:54.885Z,96799.39
2017-08-17T22:35:20.661Z,96805.38
2017-08-17T22:37:46.514Z,96808.10
2017-08-17T22:40:12.299Z,96811.22
2017-08-17T22:42:38.051Z,96806.35
2017-08-17T22:45:03.911Z,96808.85
2017-08-17T22:47:29.706Z,96811.91
2017-08-17T22:49:55.565Z,96810.81
2017-08-17T22:52:21.332Z,96807.61
2017-08-17T22:54:47.289Z,96807.19
2017-08-17T22:57:13.107Z,96804.00
2017-08-17T22:59:38.965Z,96801.83
2017-08-17T23:02:04.775Z,96803.53
2017-08-17T23:04:30.555Z,96796.27
2017-08-17T23:06:56.323Z,96797.63
2017-08-17T23:09:22.183Z,96793.41
2017-08-17T23:11:47.951Z,96790.98
2017-08-17T23:14:13.725Z,96795.02
2017-08-17T23:16:39.530Z,96792.52
2017-08-17T23:19:05.270Z,96790.01
2017-08-17T23:21:31.023Z,96792.78
2017-08-17T23:23:56.826Z,96794.09
2017-08-17T23:26:22.602Z,96789.03
2017-08-17T23:28:48.381Z,96794.23
2017-08-17T23:31:14.158Z,96790.56
2017-08-17T23:33:40.018Z,96792.52
2017-08-17T23:36:05.822Z,96790.17
2017-08-17T23:38:31.591Z,96785.84
2017-08-17T23:40:57.400Z,96781.12
2017-08-17T23:43:23.194Z,96783.84
2017-08-17T23:45:48.942Z,96778.86
2017-08-17T23:48:14.719Z,96778.34
2017-08-17T23:50:40.519Z,96780.50
2017-08-17T23:53:06.371Z,96773.36
2017-08-17T23:55:32.161Z,96772.54
2017-08-17T23:57:57.900Z,96766.70
